sensor_id;sensor_type;location;lat;lon;timestamp;P1;durP1;ratioP1;P2;durP2;ratioP2
53666;SDS011;39568;51.026;5.468;2023-11-21T00:00:21;420.60;;;33.97;;
53666;SDS011;39568;51.026;5.468;2023-11-21T00:02:47;198.50;;;23.90;;
53666;SDS011;39568;51.026;5.468;2023-11-21T00:05:14;116.80;;;24.30;;
53666;SDS011;39568;51.026;5.468;2023-11-21T00:07:41;159.60;;;24.42;;
53666;SDS011;39568;51.026;5.468;2023-11-21T00:10:08;95.63;;;21.95;;
53666;SDS011;39568;51.026;5.468;2023-11-21T00:12:36;219.35;;;27.40;;
53666;SDS011;39568;51.026;5.468;2023-11-21T00:15:03;170.13;;;25.52;;
53666;SDS011;39568;51.026;5.468;2023-11-21T00:17:30;172.88;;;27.52;;
53666;SDS011;39568;51.026;5.468;2023-11-21T00:19:56;285.85;;;27.30;;
53666;SDS011;39568;51.026;5.468;2023-11-21T00:22:23;213.82;;;30.65;;
53666;SDS011;39568;51.026;5.468;2023-11-21T00:24:50;220.68;;;29.50;;
53666;SDS011;39568;51.026;5.468;2023-11-21T00:27:17;205.15;;;25.67;;
53666;SDS011;39568;51.026;5.468;2023-11-21T00:29:45;307.52;;;45.47;;
53666;SDS011;39568;51.026;5.468;2023-11-21T00:32:11;170.25;;;24.48;;
53666;SDS011;39568;51.026;5.468;2023-11-21T00:34:38;136.50;;;24.50;;
53666;SDS011;39568;51.026;5.468;2023-11-21T00:37:05;151.18;;;25.02;;
53666;SDS011;39568;51.026;5.468;2023-11-21T00:39:32;168.45;;;26.58;;
53666;SDS011;39568;51.026;5.468;2023-11-21T00:42:00;138.13;;;21.85;;
53666;SDS011;39568;51.026;5.468;2023-11-21T00:44:26;178.52;;;24.58;;
53666;SDS011;39568;51.026;5.468;2023-11-21T00:46:54;137.65;;;25.30;;
53666;SDS011;39568;51.026;5.468;2023-11-21T00:49:21;169.55;;;26.40;;
53666;SDS011;39568;51.026;5.468;2023-11-21T00:51:47;122.07;;;24.63;;
53666;SDS011;39568;51.026;5.468;2023-11-21T00:54:13;169.40;;;27.50;;
53666;SDS011;39568;51.026;5.468;2023-11-21T00:56:42;158.18;;;24.13;;
53666;SDS011;39568;51.026;5.468;2023-11-21T00:59:08;233.98;;;33.05;;
53666;SDS011;39568;51.026;5.468;2023-11-21T01:01:35;265.30;;;34.53;;
53666;SDS011;39568;51.026;5.468;2023-11-21T01:04:04;236.90;;;30.23;;
53666;SDS011;39568;51.026;5.468;2023-11-21T01:06:31;307.15;;;34.92;;
53666;SDS011;39568;51.026;5.468;2023-11-21T01:08:58;345.33;;;33.13;;
53666;SDS011;39568;51.026;5.468;2023-11-21T01:11:24;409.70;;;36.55;;
53666;SDS011;39568;51.026;5.468;2023-11-21T01:13:51;396.85;;;37.92;;
53666;SDS011;39568;51.026;5.468;2023-11-21T01:16:18;396.88;;;34.47;;
53666;SDS011;39568;51.026;5.468;2023-11-21T01:18:44;466.35;;;58.10;;
53666;SDS011;39568;51.026;5.468;2023-11-21T01:21:12;400.55;;;50.40;;
53666;SDS011;39568;51.026;5.468;2023-11-21T01:23:39;330.50;;;34.03;;
53666;SDS011;39568;51.026;5.468;2023-11-21T01:26:05;384.30;;;35.65;;
53666;SDS011;39568;51.026;5.468;2023-11-21T01:28:34;357.90;;;35.53;;
53666;SDS011;39568;51.026;5.468;2023-11-21T01:31:00;309.10;;;36.05;;
53666;SDS011;39568;51.026;5.468;2023-11-21T01:33:27;345.73;;;37.17;;
53666;SDS011;39568;51.026;5.468;2023-11-21T01:35:53;378.52;;;40.80;;
53666;SDS011;39568;51.026;5.468;2023-11-21T01:38:22;296.80;;;33.50;;
53666;SDS011;39568;51.026;5.468;2023-11-21T01:40:48;285.42;;;32.50;;
53666;SDS011;39568;51.026;5.468;2023-11-21T01:43:15;253.68;;;31.70;;
53666;SDS011;39568;51.026;5.468;2023-11-21T01:45:42;283.95;;;33.53;;
53666;SDS011;39568;51.026;5.468;2023-11-21T01:48:10;300.02;;;36.50;;
53666;SDS011;39568;51.026;5.468;2023-11-21T01:50:37;269.33;;;33.72;;
53666;SDS011;39568;51.026;5.468;2023-11-21T01:53:04;234.27;;;29.55;;
53666;SDS011;39568;51.026;5.468;2023-11-21T01:55:33;254.93;;;33.17;;
53666;SDS011;39568;51.026;5.468;2023-11-21T01:57:59;279.35;;;33.63;;
53666;SDS011;39568;51.026;5.468;2023-11-21T02:00:26;287.90;;;33.22;;
53666;SDS011;39568;51.026;5.468;2023-11-21T02:02:54;278.13;;;32.60;;
53666;SDS011;39568;51.026;5.468;2023-11-21T02:05:21;256.42;;;31.65;;
53666;SDS011;39568;51.026;5.468;2023-11-21T02:07:48;285.13;;;32.63;;
53666;SDS011;39568;51.026;5.468;2023-11-21T02:10:15;251.35;;;31.95;;
53666;SDS011;39568;51.026;5.468;2023-11-21T02:12:43;237.80;;;29.75;;
53666;SDS011;39568;51.026;5.468;2023-11-21T02:15:10;389.30;;;40.22;;
53666;SDS011;39568;51.026;5.468;2023-11-21T02:17:40;368.67;;;37.95;;
53666;SDS011;39568;51.026;5.468;2023-11-21T02:20:07;377.70;;;37.03;;
53666;SDS011;39568;51.026;5.468;2023-11-21T02:22:37;375.67;;;34.22;;
53666;SDS011;39568;51.026;5.468;2023-11-21T02:25:07;283.67;;;31.88;;
53666;SDS011;39568;51.026;5.468;2023-11-21T02:27:33;349.42;;;35.55;;
53666;SDS011;39568;51.026;5.468;2023-11-21T02:30:00;371.33;;;35.95;;
53666;SDS011;39568;51.026;5.468;2023-11-21T02:32:29;330.80;;;34.95;;
53666;SDS011;39568;51.026;5.468;2023-11-21T02:34:56;330.17;;;33.13;;
53666;SDS011;39568;51.026;5.468;2023-11-21T02:37:26;324.58;;;32.75;;
53666;SDS011;39568;51.026;5.468;2023-11-21T02:39:52;280.80;;;32.60;;
53666;SDS011;39568;51.026;5.468;2023-11-21T02:42:20;294.65;;;32.25;;
53666;SDS011;39568;51.026;5.468;2023-11-21T02:44:46;327.05;;;34.72;;
53666;SDS011;39568;51.026;5.468;2023-11-21T02:47:13;287.17;;;33.17;;
53666;SDS011;39568;51.026;5.468;2023-11-21T02:49:39;314.17;;;34.28;;
53666;SDS011;39568;51.026;5.468;2023-11-21T02:52:05;348.02;;;35.97;;
53666;SDS011;39568;51.026;5.468;2023-11-21T02:54:32;246.02;;;28.23;;
53666;SDS011;39568;51.026;5.468;2023-11-21T02:57:01;373.35;;;38.97;;
53666;SDS011;39568;51.026;5.468;2023-11-21T02:59:29;213.80;;;28.45;;
53666;SDS011;39568;51.026;5.468;2023-11-21T03:01:55;310.27;;;35.88;;
53666;SDS011;39568;51.026;5.468;2023-11-21T03:04:22;277.17;;;32.17;;
53666;SDS011;39568;51.026;5.468;2023-11-21T03:06:48;336.55;;;36.15;;
53666;SDS011;39568;51.026;5.468;2023-11-21T03:09:15;395.20;;;37.25;;
53666;SDS011;39568;51.026;5.468;2023-11-21T03:11:41;292.50;;;34.22;;
53666;SDS011;39568;51.026;5.468;2023-11-21T03:14:08;325.60;;;36.25;;
53666;SDS011;39568;51.026;5.468;2023-11-21T03:16:35;286.83;;;36.78;;
53666;SDS011;39568;51.026;5.468;2023-11-21T03:19:03;388.58;;;39.20;;
53666;SDS011;39568;51.026;5.468;2023-11-21T03:21:30;261.15;;;34.10;;
53666;SDS011;39568;51.026;5.468;2023-11-21T03:23:56;319.60;;;34.50;;
53666;SDS011;39568;51.026;5.468;2023-11-21T03:26:24;297.38;;;37.95;;
53666;SDS011;39568;51.026;5.468;2023-11-21T03:28:51;331.20;;;36.78;;
53666;SDS011;39568;51.026;5.468;2023-11-21T03:31:18;363.98;;;37.45;;
53666;SDS011;39568;51.026;5.468;2023-11-21T03:33:46;337.38;;;38.20;;
53666;SDS011;39568;51.026;5.468;2023-11-21T03:36:13;302.92;;;36.38;;
53666;SDS011;39568;51.026;5.468;2023-11-21T03:38:41;342.58;;;38.55;;
53666;SDS011;39568;51.026;5.468;2023-11-21T03:41:07;254.52;;;35.33;;
53666;SDS011;39568;51.026;5.468;2023-11-21T03:43:35;223.55;;;33.08;;
53666;SDS011;39568;51.026;5.468;2023-11-21T03:46:01;304.90;;;35.25;;
53666;SDS011;39568;51.026;5.468;2023-11-21T03:48:28;161.63;;;28.90;;
53666;SDS011;39568;51.026;5.468;2023-11-21T03:50:56;260.20;;;32.22;;
53666;SDS011;39568;51.026;5.468;2023-11-21T03:53:22;201.82;;;30.67;;
53666;SDS011;39568;51.026;5.468;2023-11-21T03:55:49;281.25;;;32.80;;
53666;SDS011;39568;51.026;5.468;2023-11-21T03:58:15;170.13;;;27.80;;
53666;SDS011;39568;51.026;5.468;2023-11-21T04:00:42;79.97;;;20.45;;
53666;SDS011;39568;51.026;5.468;2023-11-21T04:03:08;243.90;;;32.63;;
53666;SDS011;39568;51.026;5.468;2023-11-21T04:05:34;265.73;;;36.03;;
53666;SDS011;39568;51.026;5.468;2023-11-21T04:08:02;192.30;;;27.30;;
53666;SDS011;39568;51.026;5.468;2023-11-21T04:10:29;194.85;;;26.35;;
53666;SDS011;39568;51.026;5.468;2023-11-21T04:12:55;230.70;;;33.05;;
53666;SDS011;39568;51.026;5.468;2023-11-21T04:15:22;188.60;;;31.42;;
53666;SDS011;39568;51.026;5.468;2023-11-21T04:17:48;296.17;;;39.35;;
53666;SDS011;39568;51.026;5.468;2023-11-21T04:20:15;138.07;;;25.05;;
53666;SDS011;39568;51.026;5.468;2023-11-21T04:22:43;282.88;;;30.73;;
53666;SDS011;39568;51.026;5.468;2023-11-21T04:25:11;140.93;;;24.17;;
53666;SDS011;39568;51.026;5.468;2023-11-21T04:27:38;229.48;;;27.88;;
53666;SDS011;39568;51.026;5.468;2023-11-21T04:30:05;119.35;;;23.63;;
53666;SDS011;39568;51.026;5.468;2023-11-21T04:32:33;186.20;;;26.70;;
53666;SDS011;39568;51.026;5.468;2023-11-21T04:34:59;116.47;;;24.45;;
53666;SDS011;39568;51.026;5.468;2023-11-21T04:37:26;134.18;;;22.17;;
53666;SDS011;39568;51.026;5.468;2023-11-21T04:39:52;143.00;;;22.08;;
53666;SDS011;39568;51.026;5.468;2023-11-21T04:42:20;167.35;;;23.00;;
53666;SDS011;39568;51.026;5.468;2023-11-21T04:44:46;144.80;;;24.23;;
53666;SDS011;39568;51.026;5.468;2023-11-21T04:47:13;182.30;;;23.45;;
53666;SDS011;39568;51.026;5.468;2023-11-21T04:49:41;191.40;;;25.20;;
53666;SDS011;39568;51.026;5.468;2023-11-21T04:52:07;263.60;;;28.73;;
53666;SDS011;39568;51.026;5.468;2023-11-21T04:54:35;240.23;;;27.25;;
53666;SDS011;39568;51.026;5.468;2023-11-21T04:57:01;155.90;;;22.35;;
53666;SDS011;39568;51.026;5.468;2023-11-21T04:59:31;199.85;;;22.38;;
53666;SDS011;39568;51.026;5.468;2023-11-21T05:01:57;144.07;;;22.42;;
53666;SDS011;39568;51.026;5.468;2023-11-21T05:04:25;114.30;;;16.65;;
53666;SDS011;39568;51.026;5.468;2023-11-21T05:06:52;197.93;;;22.15;;
53666;SDS011;39568;51.026;5.468;2023-11-21T05:09:18;249.38;;;24.80;;
53666;SDS011;39568;51.026;5.468;2023-11-21T05:11:45;337.05;;;29.88;;
53666;SDS011;39568;51.026;5.468;2023-11-21T05:14:11;148.43;;;20.98;;
53666;SDS011;39568;51.026;5.468;2023-11-21T05:16:40;249.18;;;23.58;;
53666;SDS011;39568;51.026;5.468;2023-11-21T05:19:07;176.45;;;23.92;;
53666;SDS011;39568;51.026;5.468;2023-11-21T05:21:34;283.77;;;25.02;;
53666;SDS011;39568;51.026;5.468;2023-11-21T05:24:01;272.67;;;27.50;;
53666;SDS011;39568;51.026;5.468;2023-11-21T05:26:27;458.15;;;33.38;;
53666;SDS011;39568;51.026;5.468;2023-11-21T05:28:53;385.90;;;33.25;;
53666;SDS011;39568;51.026;5.468;2023-11-21T05:31:20;169.73;;;21.08;;
53666;SDS011;39568;51.026;5.468;2023-11-21T05:33:48;252.30;;;27.60;;
53666;SDS011;39568;51.026;5.468;2023-11-21T05:36:14;343.63;;;30.92;;
53666;SDS011;39568;51.026;5.468;2023-11-21T05:38:41;238.65;;;28.70;;
53666;SDS011;39568;51.026;5.468;2023-11-21T05:41:06;198.32;;;23.38;;
53666;SDS011;39568;51.026;5.468;2023-11-21T05:43:36;352.45;;;29.10;;
53666;SDS011;39568;51.026;5.468;2023-11-21T05:46:02;203.68;;;23.17;;
53666;SDS011;39568;51.026;5.468;2023-11-21T05:48:29;279.80;;;27.25;;
53666;SDS011;39568;51.026;5.468;2023-11-21T05:50:57;308.30;;;27.27;;
53666;SDS011;39568;51.026;5.468;2023-11-21T05:53:24;494.52;;;34.65;;
53666;SDS011;39568;51.026;5.468;2023-11-21T05:55:50;388.38;;;31.20;;
53666;SDS011;39568;51.026;5.468;2023-11-21T05:58:17;403.95;;;29.42;;
53666;SDS011;39568;51.026;5.468;2023-11-21T06:00:43;600.92;;;46.90;;
53666;SDS011;39568;51.026;5.468;2023-11-21T06:03:09;550.58;;;38.30;;
53666;SDS011;39568;51.026;5.468;2023-11-21T06:05:36;286.30;;;28.17;;
53666;SDS011;39568;51.026;5.468;2023-11-21T06:08:04;421.05;;;30.70;;
53666;SDS011;39568;51.026;5.468;2023-11-21T06:10:31;437.10;;;32.33;;
53666;SDS011;39568;51.026;5.468;2023-11-21T06:12:58;334.73;;;28.20;;
53666;SDS011;39568;51.026;5.468;2023-11-21T06:15:24;218.73;;;24.77;;
53666;SDS011;39568;51.026;5.468;2023-11-21T06:17:51;363.10;;;31.35;;
53666;SDS011;39568;51.026;5.468;2023-11-21T06:20:18;330.60;;;27.63;;
53666;SDS011;39568;51.026;5.468;2023-11-21T06:22:47;309.85;;;28.70;;
53666;SDS011;39568;51.026;5.468;2023-11-21T06:25:15;204.45;;;22.17;;
53666;SDS011;39568;51.026;5.468;2023-11-21T06:27:43;419.25;;;33.33;;
53666;SDS011;39568;51.026;5.468;2023-11-21T06:30:11;224.10;;;26.40;;
53666;SDS011;39568;51.026;5.468;2023-11-21T06:32:38;313.38;;;29.63;;
53666;SDS011;39568;51.026;5.468;2023-11-21T06:35:06;311.17;;;35.67;;
53666;SDS011;39568;51.026;5.468;2023-11-21T06:37:33;348.63;;;27.50;;
53666;SDS011;39568;51.026;5.468;2023-11-21T06:40:00;338.83;;;30.25;;
53666;SDS011;39568;51.026;5.468;2023-11-21T06:42:30;435.33;;;36.85;;
53666;SDS011;39568;51.026;5.468;2023-11-21T06:44:56;538.70;;;36.08;;
53666;SDS011;39568;51.026;5.468;2023-11-21T06:47:24;444.88;;;34.70;;
53666;SDS011;39568;51.026;5.468;2023-11-21T06:49:51;378.65;;;30.75;;
53666;SDS011;39568;51.026;5.468;2023-11-21T06:52:17;535.13;;;38.85;;
53666;SDS011;39568;51.026;5.468;2023-11-21T06:54:44;419.17;;;30.25;;
53666;SDS011;39568;51.026;5.468;2023-11-21T06:57:10;322.08;;;31.38;;
53666;SDS011;39568;51.026;5.468;2023-11-21T06:59:38;514.58;;;39.22;;
53666;SDS011;39568;51.026;5.468;2023-11-21T07:02:05;567.95;;;37.55;;
53666;SDS011;39568;51.026;5.468;2023-11-21T07:04:32;514.20;;;41.42;;
53666;SDS011;39568;51.026;5.468;2023-11-21T07:06:59;392.75;;;28.90;;
53666;SDS011;39568;51.026;5.468;2023-11-21T07:09:25;450.25;;;31.38;;
53666;SDS011;39568;51.026;5.468;2023-11-21T07:11:51;557.72;;;40.70;;
53666;SDS011;39568;51.026;5.468;2023-11-21T07:14:18;578.85;;;42.70;;
53666;SDS011;39568;51.026;5.468;2023-11-21T07:16:46;298.50;;;27.40;;
53666;SDS011;39568;51.026;5.468;2023-11-21T07:19:13;576.75;;;41.90;;
53666;SDS011;39568;51.026;5.468;2023-11-21T07:21:40;462.45;;;36.17;;
53666;SDS011;39568;51.026;5.468;2023-11-21T07:24:07;463.05;;;33.97;;
53666;SDS011;39568;51.026;5.468;2023-11-21T07:26:34;606.72;;;47.00;;
53666;SDS011;39568;51.026;5.468;2023-11-21T07:29:01;666.33;;;48.85;;
53666;SDS011;39568;51.026;5.468;2023-11-21T07:31:27;533.33;;;41.00;;
53666;SDS011;39568;51.026;5.468;2023-11-21T07:33:55;585.63;;;42.42;;
53666;SDS011;39568;51.026;5.468;2023-11-21T07:36:23;442.92;;;34.05;;
53666;SDS011;39568;51.026;5.468;2023-11-21T07:38:49;574.88;;;61.70;;
53666;SDS011;39568;51.026;5.468;2023-11-21T07:41:17;808.63;;;102.15;;
53666;SDS011;39568;51.026;5.468;2023-11-21T07:43:44;923.15;;;118.45;;
53666;SDS011;39568;51.026;5.468;2023-11-21T07:46:10;727.30;;;125.30;;
53666;SDS011;39568;51.026;5.468;2023-11-21T07:48:37;622.50;;;80.10;;
53666;SDS011;39568;51.026;5.468;2023-11-21T07:51:05;462.77;;;41.13;;
53666;SDS011;39568;51.026;5.468;2023-11-21T07:53:33;462.38;;;40.88;;
53666;SDS011;39568;51.026;5.468;2023-11-21T07:56:02;515.35;;;45.83;;
53666;SDS011;39568;51.026;5.468;2023-11-21T07:58:29;625.70;;;132.60;;
53666;SDS011;39568;51.026;5.468;2023-11-21T08:00:56;454.33;;;45.95;;
53666;SDS011;39568;51.026;5.468;2023-11-21T08:03:22;498.95;;;43.33;;
53666;SDS011;39568;51.026;5.468;2023-11-21T08:05:49;434.23;;;44.20;;
53666;SDS011;39568;51.026;5.468;2023-11-21T08:08:16;356.45;;;35.80;;
53666;SDS011;39568;51.026;5.468;2023-11-21T08:10:43;325.80;;;44.90;;
53666;SDS011;39568;51.026;5.468;2023-11-21T08:13:11;551.83;;;72.07;;
53666;SDS011;39568;51.026;5.468;2023-11-21T08:15:39;499.17;;;41.53;;
53666;SDS011;39568;51.026;5.468;2023-11-21T08:18:06;376.55;;;33.78;;
53666;SDS011;39568;51.026;5.468;2023-11-21T08:20:32;250.30;;;28.77;;
53666;SDS011;39568;51.026;5.468;2023-11-21T08:23:01;440.63;;;37.15;;
53666;SDS011;39568;51.026;5.468;2023-11-21T08:25:29;297.27;;;33.28;;
53666;SDS011;39568;51.026;5.468;2023-11-21T08:27:55;423.45;;;38.13;;
53666;SDS011;39568;51.026;5.468;2023-11-21T08:30:22;341.42;;;35.53;;
53666;SDS011;39568;51.026;5.468;2023-11-21T08:32:49;359.00;;;35.17;;
53666;SDS011;39568;51.026;5.468;2023-11-21T08:35:16;269.65;;;29.23;;
53666;SDS011;39568;51.026;5.468;2023-11-21T08:37:43;263.90;;;35.53;;
53666;SDS011;39568;51.026;5.468;2023-11-21T08:40:09;193.98;;;29.42;;
53666;SDS011;39568;51.026;5.468;2023-11-21T08:42:40;169.40;;;30.17;;
53666;SDS011;39568;51.026;5.468;2023-11-21T08:45:08;195.50;;;30.30;;
53666;SDS011;39568;51.026;5.468;2023-11-21T08:47:34;146.00;;;29.23;;
53666;SDS011;39568;51.026;5.468;2023-11-21T08:50:01;132.60;;;29.77;;
53666;SDS011;39568;51.026;5.468;2023-11-21T08:52:28;182.05;;;32.88;;
53666;SDS011;39568;51.026;5.468;2023-11-21T08:54:55;168.48;;;31.25;;
53666;SDS011;39568;51.026;5.468;2023-11-21T08:57:22;157.38;;;28.80;;
53666;SDS011;39568;51.026;5.468;2023-11-21T08:59:49;130.65;;;27.13;;
53666;SDS011;39568;51.026;5.468;2023-11-21T09:02:20;104.50;;;22.92;;
53666;SDS011;39568;51.026;5.468;2023-11-21T09:04:47;145.00;;;27.92;;
53666;SDS011;39568;51.026;5.468;2023-11-21T09:07:14;163.57;;;30.33;;
53666;SDS011;39568;51.026;5.468;2023-11-21T09:09:40;160.45;;;31.75;;
53666;SDS011;39568;51.026;5.468;2023-11-21T09:12:07;142.15;;;32.33;;
53666;SDS011;39568;51.026;5.468;2023-11-21T09:14:37;834.28;;;325.60;;
53666;SDS011;39568;51.026;5.468;2023-11-21T09:17:05;337.75;;;107.13;;
53666;SDS011;39568;51.026;5.468;2023-11-21T09:22:02;227.45;;;37.67;;
53666;SDS011;39568;51.026;5.468;2023-11-21T09:24:28;384.98;;;133.15;;
53666;SDS011;39568;51.026;5.468;2023-11-21T09:26:55;314.40;;;100.18;;
53666;SDS011;39568;51.026;5.468;2023-11-21T09:29:21;248.63;;;70.90;;
53666;SDS011;39568;51.026;5.468;2023-11-21T09:31:48;213.07;;;34.88;;
53666;SDS011;39568;51.026;5.468;2023-11-21T09:34:17;182.52;;;37.50;;
53666;SDS011;39568;51.026;5.468;2023-11-21T09:36:44;183.30;;;33.55;;
53666;SDS011;39568;51.026;5.468;2023-11-21T09:39:11;166.35;;;40.88;;
53666;SDS011;39568;51.026;5.468;2023-11-21T09:41:40;201.07;;;55.15;;
53666;SDS011;39568;51.026;5.468;2023-11-21T09:44:09;184.07;;;43.83;;
53666;SDS011;39568;51.026;5.468;2023-11-21T09:46:38;217.43;;;49.75;;
53666;SDS011;39568;51.026;5.468;2023-11-21T09:49:06;181.38;;;47.75;;
53666;SDS011;39568;51.026;5.468;2023-11-21T09:51:38;153.10;;;34.92;;
53666;SDS011;39568;51.026;5.468;2023-11-21T09:54:06;143.65;;;36.80;;
53666;SDS011;39568;51.026;5.468;2023-11-21T09:56:34;130.02;;;28.38;;
53666;SDS011;39568;51.026;5.468;2023-11-21T09:59:00;130.88;;;29.58;;
53666;SDS011;39568;51.026;5.468;2023-11-21T10:01:31;126.93;;;36.30;;
53666;SDS011;39568;51.026;5.468;2023-11-21T10:03:58;130.55;;;34.45;;
53666;SDS011;39568;51.026;5.468;2023-11-21T10:06:25;515.30;;;305.52;;
53666;SDS011;39568;51.026;5.468;2023-11-21T10:08:54;135.85;;;42.47;;
53666;SDS011;39568;51.026;5.468;2023-11-21T10:11:22;200.43;;;71.20;;
53666;SDS011;39568;51.026;5.468;2023-11-21T10:13:50;100.53;;;28.20;;
53666;SDS011;39568;51.026;5.468;2023-11-21T10:16:19;120.20;;;29.23;;
53666;SDS011;39568;51.026;5.468;2023-11-21T10:18:47;99.55;;;26.70;;
53666;SDS011;39568;51.026;5.468;2023-11-21T10:21:14;94.85;;;25.83;;
53666;SDS011;39568;51.026;5.468;2023-11-21T10:23:41;86.22;;;25.00;;
53666;SDS011;39568;51.026;5.468;2023-11-21T10:26:11;95.65;;;24.08;;
53666;SDS011;39568;51.026;5.468;2023-11-21T10:28:41;85.88;;;23.20;;
53666;SDS011;39568;51.026;5.468;2023-11-21T10:31:07;152.80;;;69.55;;
53666;SDS011;39568;51.026;5.468;2023-11-21T10:33:34;75.80;;;22.83;;
53666;SDS011;39568;51.026;5.468;2023-11-21T10:36:01;82.43;;;23.05;;
53666;SDS011;39568;51.026;5.468;2023-11-21T10:38:27;80.93;;;24.83;;
53666;SDS011;39568;51.026;5.468;2023-11-21T10:40:55;78.22;;;24.00;;
53666;SDS011;39568;51.026;5.468;2023-11-21T10:43:25;97.30;;;25.70;;
53666;SDS011;39568;51.026;5.468;2023-11-21T10:45:52;78.18;;;22.02;;
53666;SDS011;39568;51.026;5.468;2023-11-21T10:48:19;71.68;;;20.52;;
53666;SDS011;39568;51.026;5.468;2023-11-21T10:50:47;72.88;;;21.52;;
53666;SDS011;39568;51.026;5.468;2023-11-21T10:53:13;77.90;;;22.33;;
53666;SDS011;39568;51.026;5.468;2023-11-21T10:55:40;68.13;;;22.30;;
53666;SDS011;39568;51.026;5.468;2023-11-21T10:58:06;111.07;;;42.53;;
53666;SDS011;39568;51.026;5.468;2023-11-21T11:00:37;84.45;;;30.63;;
53666;SDS011;39568;51.026;5.468;2023-11-21T11:03:05;141.55;;;37.70;;
53666;SDS011;39568;51.026;5.468;2023-11-21T11:05:37;73.90;;;26.38;;
53666;SDS011;39568;51.026;5.468;2023-11-21T11:08:04;59.60;;;23.77;;
53666;SDS011;39568;51.026;5.468;2023-11-21T11:10:30;73.32;;;27.60;;
53666;SDS011;39568;51.026;5.468;2023-11-21T11:12:57;256.83;;;68.07;;
53666;SDS011;39568;51.026;5.468;2023-11-21T11:15:24;60.25;;;19.70;;
53666;SDS011;39568;51.026;5.468;2023-11-21T11:17:53;110.32;;;31.95;;
53666;SDS011;39568;51.026;5.468;2023-11-21T11:20:22;51.63;;;18.77;;
53666;SDS011;39568;51.026;5.468;2023-11-21T11:22:51;47.95;;;17.67;;
53666;SDS011;39568;51.026;5.468;2023-11-21T11:25:32;44.20;;;18.88;;
53666;SDS011;39568;51.026;5.468;2023-11-21T11:28:02;48.53;;;17.25;;
53666;SDS011;39568;51.026;5.468;2023-11-21T11:30:36;40.78;;;15.55;;
53666;SDS011;39568;51.026;5.468;2023-11-21T11:33:10;37.70;;;13.73;;
53666;SDS011;39568;51.026;5.468;2023-11-21T11:35:41;45.30;;;14.20;;
53666;SDS011;39568;51.026;5.468;2023-11-21T11:38:09;37.17;;;16.10;;
53666;SDS011;39568;51.026;5.468;2023-11-21T11:40:40;37.90;;;17.05;;
53666;SDS011;39568;51.026;5.468;2023-11-21T11:43:12;37.92;;;15.80;;
53666;SDS011;39568;51.026;5.468;2023-11-21T11:45:38;38.50;;;16.17;;
53666;SDS011;39568;51.026;5.468;2023-11-21T11:48:10;48.75;;;18.05;;
53666;SDS011;39568;51.026;5.468;2023-11-21T11:50:41;48.20;;;18.75;;
53666;SDS011;39568;51.026;5.468;2023-11-21T11:53:14;54.53;;;18.27;;
53666;SDS011;39568;51.026;5.468;2023-11-21T11:55:41;48.20;;;18.80;;
53666;SDS011;39568;51.026;5.468;2023-11-21T11:58:07;50.28;;;18.92;;
53666;SDS011;39568;51.026;5.468;2023-11-21T12:00:34;48.15;;;20.63;;
53666;SDS011;39568;51.026;5.468;2023-11-21T12:03:03;40.80;;;17.33;;
53666;SDS011;39568;51.026;5.468;2023-11-21T12:05:32;44.03;;;21.10;;
53666;SDS011;39568;51.026;5.468;2023-11-21T12:08:01;54.07;;;20.57;;
53666;SDS011;39568;51.026;5.468;2023-11-21T12:10:29;49.38;;;20.48;;
53666;SDS011;39568;51.026;5.468;2023-11-21T12:12:55;53.92;;;21.67;;
53666;SDS011;39568;51.026;5.468;2023-11-21T12:15:23;51.63;;;19.27;;
53666;SDS011;39568;51.026;5.468;2023-11-21T12:17:50;46.25;;;18.88;;
53666;SDS011;39568;51.026;5.468;2023-11-21T12:20:18;49.90;;;19.48;;
53666;SDS011;39568;51.026;5.468;2023-11-21T12:22:46;33.53;;;16.48;;
53666;SDS011;39568;51.026;5.468;2023-11-21T12:25:14;36.42;;;14.85;;
53666;SDS011;39568;51.026;5.468;2023-11-21T12:27:43;31.40;;;13.40;;
53666;SDS011;39568;51.026;5.468;2023-11-21T12:30:11;23.40;;;12.95;;
53666;SDS011;39568;51.026;5.468;2023-11-21T12:32:40;28.40;;;12.05;;
53666;SDS011;39568;51.026;5.468;2023-11-21T12:35:07;34.30;;;15.65;;
53666;SDS011;39568;51.026;5.468;2023-11-21T12:37:35;36.55;;;16.73;;
53666;SDS011;39568;51.026;5.468;2023-11-21T12:40:03;36.75;;;16.83;;
53666;SDS011;39568;51.026;5.468;2023-11-21T12:42:31;37.58;;;16.95;;
53666;SDS011;39568;51.026;5.468;2023-11-21T12:47:46;49.83;;;21.40;;
53666;SDS011;39568;51.026;5.468;2023-11-21T12:50:12;42.38;;;18.80;;
53666;SDS011;39568;51.026;5.468;2023-11-21T12:52:43;36.30;;;16.92;;
53666;SDS011;39568;51.026;5.468;2023-11-21T12:55:17;32.72;;;18.90;;
53666;SDS011;39568;51.026;5.468;2023-11-21T12:57:47;51.78;;;20.73;;
53666;SDS011;39568;51.026;5.468;2023-11-21T13:00:15;47.00;;;21.33;;
53666;SDS011;39568;51.026;5.468;2023-11-21T13:02:52;44.53;;;20.30;;
53666;SDS011;39568;51.026;5.468;2023-11-21T13:05:26;51.30;;;21.83;;
53666;SDS011;39568;51.026;5.468;2023-11-21T13:07:53;50.65;;;22.73;;
53666;SDS011;39568;51.026;5.468;2023-11-21T13:10:21;44.08;;;20.02;;
53666;SDS011;39568;51.026;5.468;2023-11-21T13:12:51;51.45;;;22.30;;
53666;SDS011;39568;51.026;5.468;2023-11-21T13:15:18;37.38;;;19.45;;
53666;SDS011;39568;51.026;5.468;2023-11-21T13:17:44;44.92;;;19.48;;
53666;SDS011;39568;51.026;5.468;2023-11-21T13:20:11;40.92;;;19.42;;
53666;SDS011;39568;51.026;5.468;2023-11-21T13:22:44;42.33;;;19.65;;
53666;SDS011;39568;51.026;5.468;2023-11-21T13:25:11;46.28;;;21.40;;
53666;SDS011;39568;51.026;5.468;2023-11-21T13:27:40;37.25;;;18.75;;
53666;SDS011;39568;51.026;5.468;2023-11-21T13:30:08;40.03;;;18.40;;
53666;SDS011;39568;51.026;5.468;2023-11-21T13:32:35;47.00;;;21.27;;
53666;SDS011;39568;51.026;5.468;2023-11-21T13:35:01;37.78;;;19.60;;
53666;SDS011;39568;51.026;5.468;2023-11-21T13:37:33;36.13;;;18.13;;
53666;SDS011;39568;51.026;5.468;2023-11-21T13:39:59;45.22;;;18.67;;
53666;SDS011;39568;51.026;5.468;2023-11-21T13:42:28;45.60;;;19.33;;
53666;SDS011;39568;51.026;5.468;2023-11-21T13:44:57;38.00;;;19.48;;
53666;SDS011;39568;51.026;5.468;2023-11-21T13:47:24;35.00;;;16.73;;
53666;SDS011;39568;51.026;5.468;2023-11-21T13:49:54;28.53;;;14.97;;
53666;SDS011;39568;51.026;5.468;2023-11-21T13:52:21;32.05;;;16.60;;
53666;SDS011;39568;51.026;5.468;2023-11-21T13:54:51;43.78;;;19.52;;
53666;SDS011;39568;51.026;5.468;2023-11-21T13:57:18;39.00;;;18.20;;
53666;SDS011;39568;51.026;5.468;2023-11-21T13:59:45;50.25;;;20.10;;
53666;SDS011;39568;51.026;5.468;2023-11-21T14:02:13;38.13;;;19.17;;
53666;SDS011;39568;51.026;5.468;2023-11-21T14:04:43;45.38;;;19.60;;
53666;SDS011;39568;51.026;5.468;2023-11-21T14:07:23;42.83;;;19.20;;
53666;SDS011;39568;51.026;5.468;2023-11-21T14:09:57;38.28;;;19.50;;
53666;SDS011;39568;51.026;5.468;2023-11-21T14:12:24;44.53;;;19.42;;
53666;SDS011;39568;51.026;5.468;2023-11-21T14:14:50;47.72;;;17.50;;
53666;SDS011;39568;51.026;5.468;2023-11-21T14:17:18;31.20;;;17.48;;